createdAt,value
2017-12-11T00:01:46.229Z,96705.58
2017-12-11T00:04:19.796Z,96713.95
2017-12-11T00:06:53.426Z,96731.17
2017-12-11T00:09:27.209Z,96743.82
2017-12-11T00:12:01.370Z,96758.58
2017-12-11T00:14:35.050Z,96761.22
2017-12-11T00:17:08.681Z,96759.45
2017-12-11T00:19:42.735Z,96765.69
2017-12-11T00:22:20.819Z,96775.17
2017-12-11T00:24:54.363Z,96774.00
2017-12-11T00:27:28.499Z,96778.28
2017-12-11T00:30:04.024Z,96781.33
2017-12-11T00:32:37.984Z,96772.64
2017-12-11T00:35:12.225Z,96767.73
2017-12-11T00:37:45.977Z,96778.31
2017-12-11T00:40:19.903Z,96780.15
2017-12-11T00:42:53.692Z,96783.27
2017-12-11T00:45:27.393Z,96788.53
2017-12-11T00:48:01.361Z,96780.03
2017-12-11T00:50:35.467Z,96776.77
2017-12-11T00:53:09.163Z,96762.16
2017-12-11T00:55:42.995Z,96770.62
2017-12-11T00:58:16.843Z,96780.18
2017-12-11T01:00:50.995Z,96776.03
2017-12-11T01:03:24.998Z,96770.72
2017-12-11T01:05:58.769Z,96770.64
2017-12-11T01:08:33.100Z,96763.20
2017-12-11T01:11:06.797Z,96746.16
2017-12-11T01:13:40.648Z,96740.98
2017-12-11T01:16:14.610Z,96741.39
2017-12-11T01:18:48.359Z,96738.89
2017-12-11T01:21:22.224Z,96726.55
2017-12-11T01:23:55.929Z,96732.34
2017-12-11T01:26:29.544Z,96723.58
2017-12-11T01:29:03.442Z,96721.27
2017-12-11T01:31:37.016Z,96722.41
2017-12-11T01:34:11.327Z,96705.33
2017-12-11T01:36:45.134Z,96706.11
2017-12-11T01:39:18.914Z,96716.08
2017-12-11T01:41:52.566Z,96710.50
2017-12-11T01:44:26.330Z,96708.19
2017-12-11T01:47:00.475Z,96719.69
2017-12-11T01:49:34.388Z,96745.45
2017-12-11T01:52:08.504Z,96757.88
2017-12-11T01:54:42.160Z,96756.52
2017-12-11T01:57:15.896Z,96766.59
2017-12-11T01:59:49.587Z,96773.02
2017-12-11T02:02:23.743Z,96782.88
2017-12-11T02:04:57.415Z,96780.30
2017-12-11T02:07:31.065Z,96774.73
2017-12-11T02:10:04.650Z,96770.72
2017-12-11T02:12:38.234Z,96766.06
2017-12-11T02:15:13.710Z,96759.47
2017-12-11T02:17:47.814Z,96746.03
2017-12-11T02:20:21.489Z,96754.05
2017-12-11T02:22:55.198Z,96750.93
2017-12-11T02:25:29.004Z,96763.66
2017-12-11T02:28:02.787Z,96770.31
2017-12-11T02:30:37.007Z,96784.08
2017-12-11T02:33:11.006Z,96794.45
2017-12-11T02:35:44.804Z,96800.24
2017-12-11T02:38:18.347Z,96825.94
2017-12-11T02:40:52.618Z,96825.05
2017-12-11T02:43:26.908Z,96825.28
2017-12-11T02:46:00.642Z,96826.59
2017-12-11T02:48:34.692Z,96847.22
2017-12-11T02:51:08.439Z,96849.57
2017-12-11T02:53:42.126Z,96859.64
2017-12-11T02:56:15.763Z,96873.94
2017-12-11T02:58:49.916Z,96871.02
2017-12-11T03:01:23.414Z,96886.63
2017-12-11T03:03:57.257Z,96883.39
2017-12-11T03:06:30.922Z,96875.58
2017-12-11T03:09:05.015Z,96877.41
2017-12-11T03:11:38.782Z,96872.39
2017-12-11T03:14:13.014Z,96866.72
2017-12-11T03:16:46.698Z,96861.03
2017-12-11T03:19:20.444Z,96864.15
2017-12-11T03:21:54.166Z,96866.56
2017-12-11T03:24:27.806Z,96872.88
2017-12-11T03:27:01.429Z,96873.50
2017-12-11T03:29:35.366Z,96873.02
2017-12-11T03:32:09.032Z,96874.08
2017-12-11T03:34:42.727Z,96863.45
2017-12-11T03:37:16.426Z,96861.31
2017-12-11T03:39:50.279Z,96856.44
2017-12-11T03:42:24.316Z,96852.14
2017-12-11T03:44:58.314Z,96838.25
2017-12-11T03:47:32.058Z,96828.61
2017-12-11T03:50:05.883Z,96816.33
2017-12-11T03:52:40.006Z,96814.48
2017-12-11T03:55:14.222Z,96808.03
2017-12-11T03:57:47.922Z,96811.22
2017-12-11T04:00:22.187Z,96802.60
2017-12-11T04:02:55.742Z,96791.59
2017-12-11T04:05:29.688Z,96785.16
2017-12-11T04:08:03.946Z,96789.80
2017-12-11T04:10:37.588Z,96793.21
2017-12-11T04:13:11.326Z,96791.38
2017-12-11T04:15:45.005Z,96793.62
2017-12-11T04:18:19.041Z,96777.02
2017-12-11T04:20:52.641Z,96770.77
2017-12-11T04:23:26.845Z,96761.22
2017-12-11T04:26:00.597Z,96753.56
2017-12-11T04:28:34.403Z,96747.78
2017-12-11T04:31:08.264Z,96746.57
2017-12-11T04:33:44.190Z,96741.22
2017-12-11T04:36:17.763Z,96742.47
2017-12-11T04:38:51.978Z,96735.00
2017-12-11T04:41:25.985Z,96726.47
2017-12-11T04:43:59.666Z,96723.13
2017-12-11T04:46:33.390Z,96719.32
2017-12-11T04:49:07.273Z,96729.98
2017-12-11T04:51:41.013Z,96733.50
2017-12-11T04:54:14.975Z,96726.62
2017-12-11T04:56:48.837Z,96731.27
2017-12-11T04:59:22.750Z,96727.49
2017-12-11T05:01:57.088Z,96730.24
2017-12-11T05:04:30.895Z,96739.03
2017-12-11T05:07:04.920Z,96743.42
2017-12-11T05:09:38.721Z,96745.03
2017-12-11T05:12:12.463Z,96728.19
2017-12-11T05:14:46.580Z,96719.84
2017-12-11T05:17:20.246Z,96714.16
2017-12-11T05:19:54.165Z,96712.48
2017-12-11T05:22:27.864Z,96706.78
2017-12-11T05:25:01.375Z,96703.99
2017-12-11T05:27:35.704Z,96707.84
2017-12-11T05:30:09.438Z,96704.25
2017-12-11T05:32:44.673Z,96690.59
2017-12-11T05:35:18.744Z,96681.48
2017-12-11T05:37:52.696Z,96672.99
2017-12-11T05:40:26.427Z,96674.86
2017-12-11T05:43:00.243Z,96670.83
2017-12-11T05:45:34.067Z,96668.00
2017-12-11T05:48:08.110Z,96664.16
2017-12-11T05:50:41.725Z,96663.53
2017-12-11T05:53:15.350Z,96654.94
2017-12-11T05:55:49.204Z,96648.72
2017-12-11T05:58:22.893Z,96641.95
2017-12-11T06:00:57.571Z,96642.06
2017-12-11T06:03:31.338Z,96640.01
2017-12-11T06:06:05.128Z,96636.42
2017-12-11T06:08:39.024Z,96643.41
2017-12-11T06:11:12.906Z,96636.91
2017-12-11T06:13:47.162Z,96632.98
2017-12-11T06:16:20.874Z,96633.24
2017-12-11T06:18:54.988Z,96628.63
2017-12-11T06:21:29.725Z,96623.33
2017-12-11T06:24:03.550Z,96640.08
2017-12-11T06:26:37.381Z,96644.30
2017-12-11T06:29:11.582Z,96654.79
2017-12-11T06:31:45.285Z,96646.05
2017-12-11T06:34:19.274Z,96645.02
2017-12-11T06:36:53.184Z,96645.49
2017-12-11T06:39:26.849Z,96638.39
2017-12-11T06:42:00.665Z,96639.08
2017-12-11T06:44:35.044Z,96639.78
2017-12-11T06:47:08.792Z,96635.03
2017-12-11T06:49:43.024Z,96632.25
2017-12-11T06:52:16.808Z,96633.83
2017-12-11T06:54:50.845Z,96630.38
2017-12-11T06:57:25.549Z,96631.52
2017-12-11T06:59:59.597Z,96633.42
2017-12-11T07:02:33.565Z,96632.39
2017-12-11T07:05:07.737Z,96627.38
2017-12-11T07:07:41.536Z,96624.75
2017-12-11T07:10:16.265Z,96607.89
2017-12-11T07:12:50.122Z,96599.84
2017-12-11T07:15:23.774Z,96603.16
2017-12-11T07:17:57.447Z,96606.35
2017-12-11T07:20:31.635Z,96599.33
2017-12-11T07:23:05.278Z,96600.39
2017-12-11T07:25:39.422Z,96597.54
2017-12-11T07:28:13.082Z,96599.04
2017-12-11T07:30:46.787Z,96596.14
2017-12-11T07:33:20.553Z,96594.46
2017-12-11T07:35:54.291Z,96602.10
2017-12-11T07:38:28.112Z,96598.66
2017-12-11T07:41:02.374Z,96602.13
2017-12-11T07:43:36.128Z,96595.03
2017-12-11T07:46:09.991Z,96601.50
2017-12-11T07:48:43.634Z,96586.44
2017-12-11T07:51:17.397Z,96592.31
2017-12-11T07:53:51.244Z,96589.89
2017-12-11T07:56:25.426Z,96587.60
2017-12-11T07:58:59.138Z,96585.84
2017-12-11T08:01:32.800Z,96573.08
2017-12-11T08:04:06.592Z,96579.09
2017-12-11T08:06:40.344Z,96579.97
2017-12-11T08:09:13.936Z,96582.97
2017-12-11T08:11:47.791Z,96573.76
2017-12-11T08:14:21.693Z,96570.44
2017-12-11T08:16:55.561Z,96564.70
2017-12-11T08:19:29.516Z,96564.56
2017-12-11T08:22:03.316Z,96557.55
2017-12-11T08:24:37.758Z,96556.45
2017-12-11T08:27:11.438Z,96545.23
2017-12-11T08:29:45.262Z,96549.09
2017-12-11T08:32:19.007Z,96535.50
2017-12-11T08:34:53.202Z,96542.66
2017-12-11T08:37:27.042Z,96537.10
2017-12-11T08:40:00.972Z,96531.37
2017-12-11T08:42:35.269Z,96535.34
2017-12-11T08:45:08.975Z,96535.50
2017-12-11T08:47:42.681Z,96534.61
2017-12-11T08:50:16.840Z,96525.37
2017-12-11T08:52:49.688Z,96530.63
2017-12-11T08:55:23.422Z,96535.05
2017-12-11T08:57:57.329Z,96525.87
2017-12-11T09:00:31.178Z,96532.27
2017-12-11T09:03:04.755Z,96527.22
2017-12-11T09:05:38.426Z,96524.84
2017-12-11T09:08:12.270Z,96521.05
2017-12-11T09:10:46.462Z,96518.16
2017-12-11T09:13:20.272Z,96523.64
2017-12-11T09:15:54.120Z,96522.48
2017-12-11T09:18:27.774Z,96521.45
2017-12-11T09:21:02.307Z,96521.67
2017-12-11T09:23:36.632Z,96523.28
2017-12-11T09:26:10.444Z,96524.23
2017-12-11T09:28:44.210Z,96521.05
2017-12-11T09:31:18.668Z,96482.80
2017-12-11T09:33:52.527Z,96474.54
2017-12-11T09:36:27.041Z,96462.77
2017-12-11T09:39:00.756Z,96447.17
2017-12-11T09:41:35.521Z,96436.06
2017-12-11T09:44:09.381Z,96418.19
2017-12-11T09:46:43.618Z,96415.70
2017-12-11T09:49:17.430Z,96412.20
2017-12-11T09:51:51.338Z,96425.90
2017-12-11T09:54:25.891Z,96431.82
2017-12-11T09:56:59.676Z,96428.99
2017-12-11T09:59:33.508Z,96419.65
2017-12-11T10:02:07.747Z,96415.37
2017-12-11T10:04:41.668Z,96420.20
2017-12-11T10:07:15.540Z,96410.78
2017-12-11T10:09:49.424Z,96400.27
2017-12-11T10:12:23.659Z,96391.36
2017-12-11T10:14:57.610Z,96385.33
2017-12-11T10:17:31.472Z,96353.98
2017-12-11T10:20:05.388Z,96345.28
2017-12-11T10:22:39.441Z,96343.16
2017-12-11T10:25:13.204Z,96342.19
2017-12-11T10:27:47.530Z,96341.25
2017-12-11T10:30:21.513Z,96325.30
2017-12-11T10:32:55.284Z,96319.31
2017-12-11T10:35:29.973Z,96311.13
2017-12-11T10:38:03.629Z,96297.72
2017-12-11T10:40:37.694Z,96278.36
2017-12-11T10:43:11.904Z,96281.72
2017-12-11T10:45:45.743Z,96284.11
2017-12-11T10:48:19.545Z,96288.40
2017-12-11T10:50:53.328Z,96290.89
2017-12-11T10:53:27.046Z,96283.08
2017-12-11T10:56:01.376Z,96280.68
2017-12-11T10:58:35.047Z,96286.41
2017-12-11T11:01:08.801Z,96276.83
2017-12-11T11:03:42.523Z,96271.45
2017-12-11T11:06:16.271Z,96248.48
2017-12-11T11:08:49.913Z,96248.23
2017-12-11T11:11:24.422Z,96244.64
2017-12-11T11:13:58.103Z,96237.48
2017-12-11T11:16:31.824Z,96249.53
2017-12-11T11:19:05.533Z,96254.95
2017-12-11T11:21:39.471Z,96263.58
2017-12-11T11:24:14.438Z,96252.18
2017-12-11T11:26:48.621Z,96221.51
2017-12-11T11:29:22.442Z,96222.83
2017-12-11T11:31:56.638Z,96242.20
2017-12-11T11:34:30.462Z,96228.49
2017-12-11T11:37:04.303Z,96221.47
2017-12-11T11:39:38.071Z,96199.14
2017-12-11T11:42:11.992Z,96207.99
2017-12-11T11:44:46.367Z,96213.59
2017-12-11T11:47:20.057Z,96214.12
2017-12-11T11:49:54.022Z,96202.11
2017-12-11T11:52:28.389Z,96203.86
2017-12-11T11:55:02.338Z,96206.77
2017-12-11T11:57:36.137Z,96204.43
2017-12-11T12:00:10.265Z,96190.72
2017-12-11T12:02:44.897Z,96206.58
2017-12-11T12:05:18.702Z,96187.73
2017-12-11T12:07:52.864Z,96209.33
2017-12-11T12:10:26.750Z,96204.88
2017-12-11T12:13:00.468Z,96182.17
2017-12-11T12:15:34.248Z,96200.80
2017-12-11T12:18:08.029Z,96219.69
2017-12-11T12:20:41.734Z,96224.99
2017-12-11T12:23:15.795Z,96196.13
2017-12-11T12:25:49.705Z,96213.61
2017-12-11T12:28:23.691Z,96243.26
2017-12-11T12:30:57.283Z,96245.52
2017-12-11T12:33:31.818Z,96238.84
2017-12-11T12:36:05.605Z,96247.47
2017-12-11T12:38:39.440Z,96268.16
2017-12-11T12:41:13.289Z,96293.86
2017-12-11T12:43:47.037Z,96306.45
2017-12-11T12:46:21.167Z,96304.44
2017-12-11T12:48:55.038Z,96307.47
2017-12-11T12:51:28.899Z,96364.52
2017-12-11T12:54:02.689Z,96358.09
2017-12-11T12:56:36.375Z,96352.13
2017-12-11T12:59:10.243Z,96325.56
2017-12-11T13:01:44.316Z,96341.80
2017-12-11T13:04:18.066Z,96341.89
2017-12-11T13:06:51.912Z,96345.26
2017-12-11T13:09:25.677Z,96345.19
2017-12-11T13:11:59.459Z,96351.08
2017-12-11T13:14:33.336Z,96336.97
2017-12-11T13:17:07.607Z,96335.59
2017-12-11T13:19:41.628Z,96316.61
2017-12-11T13:22:15.356Z,96321.75
2017-12-11T13:24:49.240Z,96332.53
2017-12-11T13:27:22.887Z,96348.38
2017-12-11T13:29:56.531Z,96360.59
2017-12-11T13:32:30.797Z,96359.79
2017-12-11T13:35:04.492Z,96340.80
2017-12-11T13:37:38.131Z,96333.59
2017-12-11T13:40:12.937Z,96331.06
2017-12-11T13:42:46.739Z,96345.96
2017-12-11T13:45:20.434Z,96358.08
2017-12-11T13:47:54.242Z,96360.86
2017-12-11T13:50:28.088Z,96371.22
2017-12-11T13:53:02.097Z,96381.56
2017-12-11T13:58:03.997Z,96379.49
2017-12-11T14:00:37.724Z,96375.83
2017-12-11T14:03:11.886Z,96401.97
2017-12-11T14:05:45.769Z,96415.55
2017-12-11T14:08:19.551Z,96412.06
2017-12-11T14:10:53.653Z,96427.75
2017-12-11T14:13:27.399Z,96431.66
2017-12-11T14:16:01.235Z,96416.16
2017-12-11T14:18:34.872Z,96422.65
2017-12-11T14:21:08.613Z,96371.96
2017-12-11T14:23:42.795Z,96355.43
2017-12-11T14:26:16.598Z,96347.98
2017-12-11T14:28:50.502Z,96341.28
2017-12-11T14:31:24.190Z,96338.38
2017-12-11T14:33:57.846Z,96353.86
2017-12-11T14:36:32.136Z,96354.58
2017-12-11T14:39:06.796Z,96363.55
2017-12-11T14:41:40.483Z,96366.53
2017-12-11T14:44:14.332Z,96370.71
2017-12-11T14:46:46.285Z,96356.49
2017-12-11T14:49:18.345Z,96365.97
2017-12-11T14:51:50.858Z,96366.27
2017-12-11T14:54:23.936Z,96375.79
2017-12-11T14:56:56.943Z,96347.97
2017-12-11T14:59:28.732Z,96336.83
2017-12-11T15:02:02.804Z,96340.78
2017-12-11T15:04:36.576Z,96312.55
2017-12-11T15:07:10.753Z,96292.08
2017-12-11T15:09:44.610Z,96308.06
2017-12-11T15:12:18.334Z,96275.77
2017-12-11T15:14:52.188Z,96266.59
2017-12-11T15:17:26.056Z,96281.69
2017-12-11T15:19:59.732Z,96277.89
2017-12-11T15:22:34.034Z,96298.05
2017-12-11T15:25:07.756Z,96307.06
2017-12-11T15:27:41.725Z,96324.11
2017-12-11T15:30:16.022Z,96336.33
2017-12-11T15:32:50.161Z,96360.58
2017-12-11T15:35:23.793Z,96373.08
2017-12-11T15:37:58.267Z,96380.20
2017-12-11T15:40:32.101Z,96377.38
2017-12-11T15:43:06.103Z,96401.48
2017-12-11T15:45:39.940Z,96402.78
2017-12-11T15:48:13.628Z,96403.16
2017-12-11T15:50:47.436Z,96405.63
2017-12-11T15:53:21.396Z,96404.48
2017-12-11T15:55:55.074Z,96386.13
2017-12-11T15:58:28.975Z,96398.52
2017-12-11T16:01:02.788Z,96403.95
2017-12-11T16:03:36.749Z,96407.11
2017-12-11T16:06:10.457Z,96403.14
2017-12-11T16:08:44.670Z,96404.17
2017-12-11T16:11:18.546Z,96413.14
2017-12-11T16:13:52.512Z,96407.02
2017-12-11T16:16:26.470Z,96414.77
2017-12-11T16:19:01.169Z,96409.15
2017-12-11T16:21:34.851Z,96409.67
2017-12-11T16:24:08.609Z,96407.31
2017-12-11T16:26:42.435Z,96398.25
2017-12-11T16:29:16.229Z,96412.98
2017-12-11T16:31:50.303Z,96413.03
2017-12-11T16:34:24.457Z,96419.22
2017-12-11T16:36:58.760Z,96436.84
2017-12-11T16:39:32.481Z,96433.72
2017-12-11T16:42:06.339Z,96422.56
2017-12-11T16:44:40.735Z,96416.39
2017-12-11T16:47:14.511Z,96404.05
2017-12-11T16:49:48.343Z,96408.50
2017-12-11T16:52:22.141Z,96408.23
2017-12-11T16:54:55.894Z,96412.31
2017-12-11T16:57:30.035Z,96421.00
2017-12-11T17:00:05.842Z,96434.33
2017-12-11T17:02:39.332Z,96442.92
2017-12-11T17:05:13.053Z,96430.38
2017-12-11T17:07:46.795Z,96433.77
2017-12-11T17:10:20.598Z,96441.63
2017-12-11T17:12:54.589Z,96434.59
2017-12-11T17:15:28.959Z,96445.53
2017-12-11T17:18:02.833Z,96451.98
2017-12-11T17:20:36.635Z,96452.98
2017-12-11T17:23:10.743Z,96465.78
2017-12-11T17:25:44.531Z,96460.56
2017-12-11T17:28:18.690Z,96457.05
2017-12-11T17:30:52.446Z,96452.88
2017-12-11T17:33:26.442Z,96453.97
2017-12-11T17:36:00.708Z,96466.61
2017-12-11T17:38:34.657Z,96466.87
2017-12-11T17:41:08.442Z,96460.64
2017-12-11T17:43:42.753Z,96470.63
2017-12-11T17:46:16.766Z,96467.33
2017-12-11T17:48:51.471Z,96477.62
2017-12-11T17:51:25.480Z,96480.45
2017-12-11T17:54:01.166Z,96491.31
2017-12-11T17:56:34.934Z,96502.16
2017-12-11T17:59:08.757Z,96499.24
2017-12-11T18:01:43.006Z,96497.52
2017-12-11T18:04:16.766Z,96509.03
2017-12-11T18:06:50.649Z,96515.89
2017-12-11T18:09:24.757Z,96509.10
2017-12-11T18:11:58.769Z,96518.36
2017-12-11T18:14:32.382Z,96523.45
2017-12-11T18:17:06.728Z,96523.68
2017-12-11T18:19:40.482Z,96523.16
2017-12-11T18:22:15.626Z,96524.13
2017-12-11T18:24:49.494Z,96517.55
2017-12-11T18:27:23.281Z,96518.04
2017-12-11T18:29:57.052Z,96520.29
2017-12-11T18:32:30.905Z,96512.00
2017-12-11T18:35:05.255Z,96517.14
2017-12-11T18:37:39.288Z,96519.63
2017-12-11T18:40:12.962Z,96519.55
2017-12-11T18:42:47.454Z,96517.30
2017-12-11T18:45:21.165Z,96524.55
2017-12-11T18:47:55.318Z,96538.22
2017-12-11T18:50:29.029Z,96536.05
2017-12-11T18:53:02.858Z,96541.45
2017-12-11T18:55:36.660Z,96529.09
2017-12-11T18:58:10.460Z,96544.33
2017-12-11T19:00:44.287Z,96546.00
2017-12-11T19:03:18.569Z,96543.59
2017-12-11T19:05:52.177Z,96549.33
2017-12-11T19:08:25.869Z,96558.11
2017-12-11T19:10:59.739Z,96553.95
2017-12-11T19:13:33.791Z,96560.45
2017-12-11T19:16:07.473Z,96551.66
2017-12-11T19:18:41.964Z,96541.62
2017-12-11T19:21:15.776Z,96537.98
2017-12-11T19:23:49.596Z,96538.02
2017-12-11T19:26:23.404Z,96536.81
2017-12-11T19:28:57.231Z,96526.80
2017-12-11T19:31:31.047Z,96544.91
2017-12-11T19:34:04.751Z,96563.52
2017-12-11T19:36:38.631Z,96567.94
2017-12-11T19:39:12.774Z,96557.44
2017-12-11T19:41:47.284Z,96553.27
2017-12-11T19:44:21.224Z,96563.54
2017-12-11T19:46:55.224Z,96563.38
2017-12-11T19:49:29.112Z,96568.55
2017-12-11T19:52:03.240Z,96561.33
2017-12-11T19:54:37.143Z,96572.42
2017-12-11T19:57:10.920Z,96580.94
2017-12-11T19:59:44.997Z,96606.12
2017-12-11T20:02:18.924Z,96605.16
2017-12-11T20:04:52.535Z,96618.26
2017-12-11T20:07:26.360Z,96613.80
2017-12-11T20:10:00.193Z,96622.66
2017-12-11T20:12:34.316Z,96622.70
2017-12-11T20:15:08.581Z,96625.34
2017-12-11T20:17:42.395Z,96616.56
2017-12-11T20:20:16.754Z,96622.00
2017-12-11T20:22:50.884Z,96616.14
2017-12-11T20:25:24.635Z,96624.55
2017-12-11T20:27:58.853Z,96614.44
2017-12-11T20:30:32.701Z,96626.34
2017-12-11T20:33:06.379Z,96626.78
2017-12-11T20:35:39.943Z,96626.05
2017-12-11T20:38:13.705Z,96624.20
2017-12-11T20:40:47.990Z,96627.47
2017-12-11T20:43:21.865Z,96628.27
2017-12-11T20:45:55.725Z,96622.25
2017-12-11T20:48:29.538Z,96621.66
2017-12-11T20:51:03.330Z,96630.42
2017-12-11T20:53:37.534Z,96632.03
2017-12-11T20:56:11.573Z,96637.61
2017-12-11T20:58:45.329Z,96625.23
2017-12-11T21:01:19.117Z,96634.45
2017-12-11T21:03:52.897Z,96628.31
2017-12-11T21:06:26.793Z,96643.01
2017-12-11T21:09:00.956Z,96648.81
2017-12-11T21:11:34.973Z,96632.03
2017-12-11T21:14:09.150Z,96643.05
2017-12-11T21:16:42.867Z,96657.30
2017-12-11T21:19:16.888Z,96662.17
2017-12-11T21:21:50.754Z,96665.05
2017-12-11T21:24:25.196Z,96676.32
2017-12-11T21:26:58.893Z,96700.78
2017-12-11T21:29:32.611Z,96717.80
2017-12-11T21:32:07.091Z,96725.00
2017-12-11T21:34:40.810Z,96715.70
2017-12-11T21:37:14.672Z,96729.88
2017-12-11T21:39:48.146Z,96734.58
2017-12-11T21:42:22.038Z,96753.47
2017-12-11T21:44:55.978Z,96773.38
2017-12-11T21:47:30.319Z,96769.06
2017-12-11T21:50:03.900Z,96797.01
2017-12-11T21:52:37.836Z,96766.33
2017-12-11T21:55:11.585Z,96770.69
2017-12-11T21:57:45.584Z,96777.48
2017-12-11T22:00:19.435Z,96777.95
2017-12-11T22:02:53.073Z,96775.53
2017-12-11T22:05:27.203Z,96772.39
2017-12-11T22:08:01.057Z,96779.78
2017-12-11T22:10:34.839Z,96788.47
2017-12-11T22:13:08.570Z,96783.37
2017-12-11T22:15:42.207Z,96794.41
2017-12-11T22:18:15.917Z,96796.64
2017-12-11T22:20:50.140Z,96805.30
2017-12-11T22:23:23.849Z,96807.96
2017-12-11T22:25:57.661Z,96812.45
2017-12-11T22:28:31.544Z,96811.02
2017-12-11T22:31:05.649Z,96818.91
2017-12-11T22:33:39.663Z,96821.70
2017-12-11T22:36:13.248Z,96823.46
2017-12-11T22:38:46.978Z,96838.40
2017-12-11T22:41:21.109Z,96851.33
2017-12-11T22:43:55.366Z,96849.33
2017-12-11T22:46:29.646Z,96853.58
2017-12-11T22:49:03.294Z,96847.56
2017-12-11T22:51:36.951Z,96859.02
2017-12-11T22:54:10.799Z,96874.20
2017-12-11T22:56:44.577Z,96875.22
2017-12-11T22:59:18.453Z,96883.47
2017-12-11T23:01:52.693Z,96889.45
2017-12-11T23:04:26.393Z,96901.35
2017-12-11T23:07:00.149Z,96899.92
2017-12-11T23:09:33.907Z,96892.91
2017-12-11T23:12:07.558Z,96902.09
2017-12-11T23:14:41.772Z,96904.59
2017-12-11T23:17:15.525Z,96906.78
2017-12-11T23:19:49.449Z,96909.62
2017-12-11T23:22:23.248Z,96925.20
2017-12-11T23:24:57.119Z,96926.23
2017-12-11T23:27:30.909Z,96934.64
2017-12-11T23:30:06.648Z,96929.53
2017-12-11T23:32:40.289Z,96935.61
2017-12-11T23:35:14.245Z,96945.28
2017-12-11T23:37:47.843Z,96954.39
2017-12-11T23:40:21.435Z,96951.19
2017-12-11T23:42:55.148Z,96960.08
2017-12-11T23:45:28.855Z,96976.72
2017-12-11T23:48:02.524Z,96985.01
2017-12-11T23:50:36.817Z,96983.42
2017-12-11T23:53:08.828Z,96985.41
2017-12-11T23:55:39.910Z,97000.04
2017-12-11T23:58:11.155Z,96999.58
